Terminal Aerodrome Forecast
Issued by NWS Northern Indiana

Home | Current Version | Previous Version | Text Only | Print | Product List | Glossary On
Versions: 1 2 3 4 5 6 7 8 9 10 11 12
000
FTUS43 KIWX 291700
TAFFWA
TAF
KFWA 291730Z 2918/3018 19019G28KT P6SM SCT100
     FM292000 20018G25KT 6SM -RA BKN050
     FM292200 21017G25KT P6SM SCT050
     FM300100 24016G24KT P6SM BKN030
     FM300600 27012G20KT P6SM SCT030
     FM301200 28012KT P6SM SKC=

USA.gov is the U.S. government's official web portal to all federal, state and local government web resources and services.